Time;durP1;ratioP1;P1;durP2;ratioP2;P2;SDS_P1;SDS_P2;PMS_P1;PMS_P2;Temp;Humidity;BMP_temperature;BMP_pressure;BME280_temperature;BME280_humidity;BME280_pressure;Samples;Min_cycle;Max_cycle;Signal;HPM_P1;HPM_P2
2022/08/19 00:01:59;;;;;;;5.30;4.82;;;17.90;99.90;;;;;;5074147;28;20629;-78
2022/08/19 00:04:30;;;;;;;5.93;5.43;;;17.90;99.90;;;;;;5058436;28;20198;-78
2022/08/19 00:06:57;;;;;;;7.28;6.18;;;17.90;99.90;;;;;;5053919;28;20282;-78
2022/08/19 00:09:24;;;;;;;6.68;6.07;;;17.90;99.90;;;;;;5054506;28;20217;-78
2022/08/19 00:11:52;;;;;;;7.53;6.93;;;17.90;99.90;;;;;;5054373;28;21009;-78
2022/08/19 00:14:21;;;;;;;8.10;7.25;;;17.90;99.90;;;;;;5053850;28;20615;-78
2022/08/19 00:16:51;;;;;;;6.93;6.40;;;17.90;99.90;;;;;;5054276;28;20194;-77
2022/08/19 00:19:18;;;;;;;6.53;5.93;;;17.90;99.90;;;;;;5054281;28;20194;-78
2022/08/19 00:21:45;;;;;;;6.50;5.95;;;17.90;99.90;;;;;;5053324;28;20497;-78
2022/08/19 00:24:14;;;;;;;5.93;5.32;;;17.90;99.90;;;;;;5054564;28;20200;-78
2022/08/19 00:26:42;;;;;;;6.47;5.88;;;17.90;99.90;;;;;;5053519;28;20282;-78
2022/08/19 00:29:11;;;;;;;6.20;5.70;;;17.80;99.90;;;;;;5054467;28;20243;-78
2022/08/19 00:31:40;;;;;;;5.60;5.10;;;17.80;99.90;;;;;;5053241;28;20197;-79
2022/08/19 00:34:07;;;;;;;6.20;5.70;;;17.80;99.90;;;;;;5053347;28;20206;-77
2022/08/19 00:36:34;;;;;;;6.22;5.68;;;17.80;99.90;;;;;;5054726;28;20558;-78
2022/08/19 00:39:01;;;;;;;6.68;6.05;;;17.70;99.90;;;;;;5054146;28;20236;-78
2022/08/19 00:41:29;;;;;;;6.47;5.88;;;17.70;99.90;;;;;;5052736;28;20208;-79
2022/08/19 00:44:08;;;;;;;6.90;6.20;;;17.70;99.90;;;;;;5066639;28;20202;-79
2022/08/19 00:46:36;;;;;;;7.97;7.28;;;17.60;99.90;;;;;;5073278;28;20219;-79
2022/08/19 00:49:11;;;;;;;6.80;6.20;;;17.60;99.90;;;;;;5073071;28;20269;-79
2022/08/19 00:51:38;;;;;;;7.82;7.13;;;17.60;99.90;;;;;;5070240;28;20214;-78
2022/08/19 00:54:05;;;;;;;6.60;6.00;;;17.60;99.90;;;;;;5053791;28;20197;-78
2022/08/19 00:56:32;;;;;;;7.72;7.00;;;17.60;99.90;;;;;;5053280;28;20202;-78
2022/08/19 00:59:01;;;;;;;9.20;8.27;;;17.60;99.90;;;;;;5067426;28;20208;-78
2022/08/19 01:01:28;;;;;;;7.82;6.97;;;17.60;99.90;;;;;;5073758;28;20189;-78
2022/08/19 01:03:55;;;;;;;8.77;7.97;;;17.50;99.90;;;;;;5070273;28;20231;-78
2022/08/19 01:06:23;;;;;;;7.78;7.07;;;17.50;99.90;;;;;;5053571;28;20220;-77
2022/08/19 01:08:50;;;;;;;9.63;8.73;;;17.50;99.90;;;;;;5052593;28;20320;-77
2022/08/19 01:11:17;;;;;;;9.63;8.82;;;17.50;99.90;;;;;;5053127;28;20244;-78
2022/08/19 01:13:46;;;;;;;8.48;7.78;;;17.50;99.90;;;;;;5053789;28;20220;-78
2022/08/19 01:16:14;;;;;;;8.27;7.47;;;17.40;99.90;;;;;;5052614;28;20203;-80
2022/08/19 01:18:43;;;;;;;9.25;8.45;;;17.40;99.90;;;;;;5053192;28;20194;-78
2022/08/19 01:21:17;;;;;;;9.18;8.27;;;17.40;99.90;;;;;;5053149;28;20277;-78
2022/08/19 01:23:46;;;;;;;9.68;8.80;;;17.40;99.90;;;;;;5052834;28;20291;-78
2022/08/19 01:26:16;;;;;;;9.95;9.05;;;17.40;99.90;;;;;;5052737;28;20524;-78
2022/08/19 01:28:44;;;;;;;10.15;9.25;;;17.40;99.90;;;;;;5066585;28;20243;-78
2022/08/19 01:31:14;;;;;;;10.02;9.02;;;17.40;99.90;;;;;;5072488;28;20236;-78
2022/08/19 01:33:41;;;;;;;11.38;10.27;;;17.50;99.90;;;;;;5073046;28;20512;-78
2022/08/19 01:36:11;;;;;;;10.18;9.25;;;17.50;99.90;;;;;;5072468;28;20790;-78
2022/08/19 01:38:41;;;;;;;10.02;9.13;;;17.50;99.90;;;;;;5072015;28;20233;-78
2022/08/19 01:41:10;;;;;;;9.38;8.57;;;17.50;99.90;;;;;;5072441;28;20208;-79
2022/08/19 01:43:37;;;;;;;10.05;9.05;;;17.50;99.90;;;;;;5063529;28;20281;-79
2022/08/19 01:46:05;;;;;;;9.95;8.90;;;17.50;99.90;;;;;;5051797;28;20193;-78
2022/08/19 01:48:35;;;;;;;9.48;8.57;;;17.50;99.90;;;;;;5052551;28;20220;-78
2022/08/19 01:51:02;;;;;;;9.68;8.68;;;17.50;99.90;;;;;;5057772;28;20193;-77
2022/08/19 01:53:29;;;;;;;8.77;7.97;;;17.50;99.90;;;;;;5072938;28;20208;-78
2022/08/19 01:55:57;;;;;;;9.85;8.77;;;17.50;99.90;;;;;;5072431;28;20196;-78
2022/08/19 01:58:30;;;;;;;7.95;7.25;;;17.50;99.90;;;;;;5071094;28;20197;-79
2022/08/19 02:00:57;;;;;;;8.02;7.22;;;17.50;99.90;;;;;;5071523;28;20212;-79
2022/08/19 02:03:24;;;;;;;7.97;7.28;;;17.50;99.90;;;;;;5072594;28;20234;-78
2022/08/19 02:05:56;;;;;;;7.93;7.22;;;17.50;99.90;;;;;;5071732;28;20193;-78
2022/08/19 02:08:23;;;;;;;8.68;7.88;;;17.50;99.90;;;;;;5071501;28;20295;-78
2022/08/19 02:10:50;;;;;;;9.00;7.97;;;17.50;99.90;;;;;;5072257;28;20227;-78
2022/08/19 02:13:17;;;;;;;9.20;8.30;;;17.50;99.90;;;;;;5071304;28;20212;-78
2022/08/19 02:15:46;;;;;;;9.65;8.75;;;17.50;99.90;;;;;;5071970;28;20568;-79
2022/08/19 02:18:13;;;;;;;8.70;7.90;;;17.50;99.90;;;;;;5054635;28;20216;-78
2022/08/19 02:20:42;;;;;;;9.35;8.45;;;17.50;99.90;;;;;;5051799;28;20197;-77
2022/08/19 02:23:10;;;;;;;10.52;9.50;;;17.40;99.90;;;;;;5052389;28;20285;-77
2022/08/19 02:25:37;;;;;;;8.93;8.13;;;17.50;99.90;;;;;;5051961;28;20293;-76
2022/08/19 02:28:05;;;;;;;8.68;7.78;;;17.50;99.90;;;;;;5051042;28;20198;-77
2022/08/19 02:30:32;;;;;;;12.30;9.85;;;17.40;99.90;;;;;;5052913;28;20208;-76
2022/08/19 02:33:00;;;;;;;9.82;8.93;;;17.50;99.90;;;;;;5072007;28;20208;-78
2022/08/19 02:35:27;;;;;;;12.68;10.50;;;17.40;99.90;;;;;;5071290;28;20307;-77
2022/08/19 02:40:38;;;;;;;11.18;9.90;;;17.50;99.90;;;;;;5057685;28;20283;-77
2022/08/19 02:43:08;;;;;;;9.23;8.00;;;17.50;99.90;;;;;;5051557;28;20509;-77
2022/08/19 02:45:36;;;;;;;8.13;7.32;;;17.40;99.90;;;;;;5052030;28;20201;-78
2022/08/19 02:48:05;;;;;;;11.77;8.80;;;17.50;99.90;;;;;;5051289;28;20193;-79
2022/08/19 02:50:32;;;;;;;8.45;7.63;;;17.50;99.90;;;;;;5068293;23;20208;-78
2022/08/19 02:52:59;;;;;;;7.88;7.18;;;17.50;99.90;;;;;;5051677;28;20193;-79
2022/08/19 02:55:26;;;;;;;10.68;9.50;;;17.40;99.90;;;;;;5053215;28;20227;-77
2022/08/19 02:57:52;;;;;;;9.70;8.70;;;17.40;99.90;;;;;;5055349;28;20212;-77
2022/08/19 03:00:23;;;;;;;9.77;8.75;;;17.40;99.90;;;;;;5055679;28;20497;-78
2022/08/19 03:02:50;;;;;;;9.85;8.85;;;17.40;99.90;;;;;;5043914;28;20293;-78
2022/08/19 03:05:18;;;;;;;10.82;8.95;;;17.40;99.90;;;;;;5035947;28;20494;-76
2022/08/19 03:07:46;;;;;;;9.43;8.45;;;17.40;99.90;;;;;;5036086;28;20220;-76
2022/08/19 03:10:13;;;;;;;9.25;8.25;;;17.40;99.90;;;;;;5034286;28;20265;-78
2022/08/19 03:12:40;;;;;;;9.90;8.25;;;17.40;99.90;;;;;;5035689;28;20198;-77
2022/08/19 03:15:10;;;;;;;11.52;10.35;;;17.30;99.90;;;;;;5035873;28;20206;-76
2022/08/19 03:17:37;;;;;;;13.52;12.20;;;17.40;99.90;;;;;;5035061;28;20517;-76
2022/08/19 03:20:05;;;;;;;11.00;9.90;;;17.40;99.90;;;;;;5035552;28;20244;-76
2022/08/19 03:22:33;;;;;;;10.98;9.88;;;17.40;99.90;;;;;;5052018;28;20611;-76
2022/08/19 03:25:00;;;;;;;11.82;10.63;;;17.30;99.90;;;;;;5055414;28;20285;-78
2022/08/19 03:27:27;;;;;;;13.63;12.23;;;17.30;99.90;;;;;;5043872;28;20211;-77
2022/08/19 03:29:53;;;;;;;13.90;12.50;;;17.30;99.90;;;;;;5034769;28;20222;-77
2022/08/19 03:32:21;;;;;;;17.02;13.85;;;17.30;99.90;;;;;;5035168;28;20759;-77
2022/08/19 03:34:49;;;;;;;13.02;11.73;;;17.30;99.90;;;;;;5057051;28;20283;-77
2022/08/19 03:37:16;;;;;;;17.60;15.68;;;17.30;99.90;;;;;;5074892;28;20765;-76
2022/08/19 03:39:44;;;;;;;15.52;13.32;;;17.30;99.90;;;;;;5074459;28;20248;-77
2022/08/19 03:42:12;;;;;;;20.58;16.65;;;17.30;99.90;;;;;;5074850;28;20205;-76
2022/08/19 03:44:38;;;;;;;18.05;16.25;;;17.30;99.90;;;;;;5074610;28;20225;-76
2022/08/19 03:47:06;;;;;;;20.17;16.50;;;17.30;99.90;;;;;;5074148;28;20216;-77
2022/08/19 03:49:34;;;;;;;26.40;21.33;;;17.30;99.90;;;;;;5074786;28;20225;-77
2022/08/19 03:52:04;;;;;;;20.15;18.08;;;17.30;99.90;;;;;;5073875;28;20286;-77
2022/08/19 03:54:31;;;;;;;17.67;15.88;;;17.30;99.90;;;;;;5075013;28;20197;-77
2022/08/19 03:56:59;;;;;;;17.38;15.68;;;17.30;99.90;;;;;;5058136;28;20230;-77
2022/08/19 03:59:29;;;;;;;15.70;14.07;;;17.30;99.90;;;;;;5054542;28;20206;-78
2022/08/19 04:01:58;;;;;;;17.65;15.93;;;17.20;99.90;;;;;;5055082;28;20206;-76
2022/08/19 04:04:26;;;;;;;28.75;21.45;;;17.20;99.90;;;;;;5054896;28;20289;-76
2022/08/19 04:06:53;;;;;;;21.30;19.08;;;17.30;99.90;;;;;;5052624;28;20648;-77
2022/08/19 04:09:21;;;;;;;25.75;23.02;;;17.30;99.90;;;;;;5054370;28;20701;-77
2022/08/19 04:11:50;;;;;;;25.38;21.52;;;17.30;99.90;;;;;;5053688;28;20634;-77
2022/08/19 04:14:22;;;;;;;22.33;19.77;;;17.30;99.90;;;;;;5054152;28;20198;-77
2022/08/19 04:16:50;;;;;;;22.83;20.13;;;17.30;99.90;;;;;;5053935;28;20309;-77
2022/08/19 04:19:18;;;;;;;19.45;17.10;;;17.30;99.90;;;;;;5053381;28;20216;-79
2022/08/19 04:21:47;;;;;;;20.75;18.60;;;17.30;99.90;;;;;;5054283;28;20225;-79
2022/08/19 04:24:15;;;;;;;26.13;19.88;;;17.30;99.90;;;;;;5054819;28;20213;-79
2022/08/19 04:26:42;;;;;;;21.33;18.40;;;17.20;99.90;;;;;;5060956;28;20284;-79
2022/08/19 04:29:11;;;;;;;24.85;21.30;;;17.30;99.90;;;;;;5074624;28;20235;-79
2022/08/19 04:31:40;;;;;;;23.27;19.55;;;17.30;99.90;;;;;;5074254;28;20207;-78
2022/08/19 04:34:11;;;;;;;30.02;22.15;;;17.20;99.90;;;;;;5073653;28;20221;-79
2022/08/19 04:36:40;;;;;;;35.35;25.23;;;17.30;99.90;;;;;;5074016;28;20647;-79
2022/08/19 04:39:10;;;;;;;31.63;23.38;;;17.40;99.90;;;;;;5061489;28;20214;-80
2022/08/19 04:44:21;;;;;;;24.85;20.75;;;17.40;99.90;;;;;;5053852;28;20205;-79
2022/08/19 04:46:51;;;;;;;27.73;23.33;;;17.40;99.90;;;;;;5053703;28;20271;-79
2022/08/19 04:49:19;;;;;;;29.45;22.15;;;17.40;99.90;;;;;;5053259;28;20222;-79
2022/08/19 04:51:49;;;;;;;26.77;21.10;;;17.50;99.90;;;;;;5053316;28;20245;-79
2022/08/19 04:54:16;;;;;;;28.90;23.10;;;17.50;99.90;;;;;;5053602;28;20222;-80
2022/08/19 04:56:43;;;;;;;29.75;23.77;;;17.60;99.90;;;;;;5054184;28;20208;-78
2022/08/19 04:59:11;;;;;;;30.90;22.15;;;17.60;99.90;;;;;;5053548;28;20202;-79
2022/08/19 05:01:38;;;;;;;24.85;21.00;;;17.70;99.90;;;;;;5053135;28;20248;-79
2022/08/19 05:04:07;;;;;;;26.35;20.83;;;17.70;99.90;;;;;;5062883;28;20295;-78
2022/08/19 05:06:35;;;;;;;30.98;23.70;;;17.80;99.90;;;;;;5073682;28;20205;-79
2022/08/19 05:09:03;;;;;;;29.83;23.98;;;17.80;99.90;;;;;;5072920;28;20219;-79
2022/08/19 05:11:32;;;;;;;34.42;24.45;;;17.90;99.90;;;;;;5061333;28;20210;-79
2022/08/19 05:13:59;;;;;;;34.33;22.38;;;18.00;99.90;;;;;;5052929;28;20194;-79
2022/08/19 05:16:27;;;;;;;30.27;22.85;;;18.00;99.90;;;;;;5052293;28;20209;-79
2022/08/19 05:24:28;;;;;;;38.92;25.75;;;18.10;99.90;;;;;;5073017;28;20192;-80
2022/08/19 05:26:57;;;;;;;31.60;23.92;;;18.20;99.90;;;;;;5072737;28;20246;-80
2022/08/19 05:29:27;;;;;;;34.55;23.80;;;18.20;99.90;;;;;;5071460;28;20332;-78
2022/08/19 05:31:55;;;;;;;28.20;21.83;;;18.30;99.90;;;;;;5072628;28;20197;-79
2022/08/19 05:34:25;;;;;;;33.70;22.92;;;18.30;99.90;;;;;;5072396;28;20318;-79
2022/08/19 05:36:56;;;;;;;29.90;21.35;;;18.30;99.90;;;;;;5072431;28;20200;-80
2022/08/19 05:39:25;;;;;;;37.83;25.15;;;18.40;99.90;;;;;;5055905;28;20578;-80
2022/08/19 05:41:56;;;;;;;30.67;21.95;;;18.40;99.90;;;;;;5052280;28;20243;-79
2022/08/19 05:44:24;;;;;;;30.27;21.55;;;18.50;99.90;;;;;;5051686;28;20194;-79
2022/08/19 05:46:53;;;;;;;33.90;23.08;;;18.50;99.90;;;;;;5052535;28;20229;-78
2022/08/19 05:49:22;;;;;;;31.20;21.40;;;18.50;99.90;;;;;;5052980;28;20547;-78
2022/08/19 05:51:49;;;;;;;32.42;24.10;;;18.60;99.90;;;;;;5065452;28;20237;-83
2022/08/19 05:54:17;;;;;;;31.70;21.52;;;18.60;99.90;;;;;;5072596;28;20221;-78
2022/08/19 05:56:47;;;;;;;33.72;23.30;;;18.60;99.90;;;;;;5072261;28;20296;-79
2022/08/19 05:59:16;;;;;;;38.47;24.15;;;18.70;99.90;;;;;;5071701;28;20875;-78
2022/08/19 06:01:45;;;;;;;29.10;21.00;;;18.70;99.90;;;;;;5072319;28;20205;-79
2022/08/19 06:04:13;;;;;;;26.13;20.17;;;18.70;99.90;;;;;;5071912;28;20272;-78
2022/08/19 06:06:41;;;;;;;32.92;22.58;;;18.80;99.90;;;;;;5052455;28;20221;-78
2022/08/19 06:09:10;;;;;;;30.15;22.85;;;18.80;99.90;;;;;;5051815;28;20213;-79
2022/08/19 06:11:40;;;;;;;30.83;20.85;;;18.90;99.90;;;;;;5065007;28;20461;-80
2022/08/19 06:14:10;;;;;;;24.98;20.63;;;19.00;99.90;;;;;;5072090;28;20544;-77
2022/08/19 06:16:38;;;;;;;52.30;27.88;;;19.00;99.90;;;;;;5072168;28;20289;-78
2022/08/19 06:19:08;;;;;;;37.35;25.90;;;19.20;99.90;;;;;;5068269;28;20880;-79
2022/08/19 06:21:37;;;;;;;30.77;21.05;;;19.20;99.90;;;;;;5072508;28;20500;-80
2022/08/19 06:24:06;;;;;;;36.72;25.17;;;19.30;99.90;;;;;;5051370;28;20268;-79
2022/08/19 06:26:35;;;;;;;35.35;25.00;;;19.30;99.90;;;;;;5051268;28;20586;-78
2022/08/19 06:29:05;;;;;;;40.88;27.60;;;19.30;99.90;;;;;;5051475;28;20213;-79
2022/08/19 06:31:34;;;;;;;39.58;26.25;;;19.40;99.90;;;;;;5051867;28;20807;-79
2022/08/19 06:34:02;;;;;;;34.58;25.23;;;19.40;99.90;;;;;;5061576;28;20537;-79
2022/08/19 06:36:33;;;;;;;38.45;26.60;;;19.50;99.90;;;;;;5070501;28;20209;-79
2022/08/19 06:39:02;;;;;;;34.78;23.90;;;19.60;99.90;;;;;;5068613;28;20201;-79
2022/08/19 06:41:30;;;;;;;37.78;24.88;;;19.70;99.90;;;;;;5067452;28;20197;-80
2022/08/19 06:43:58;;;;;;;36.35;24.58;;;19.80;99.90;;;;;;5059096;28;20201;-79
2022/08/19 06:46:27;;;;;;;42.17;26.70;;;19.90;99.90;;;;;;5066331;28;20196;-79
2022/08/19 06:48:54;;;;;;;40.58;26.67;;;20.00;99.90;;;;;;5066246;28;20593;-80
2022/08/19 06:51:23;;;;;;;34.60;23.95;;;20.10;99.90;;;;;;5068833;28;20677;-79
2022/08/19 06:53:52;;;;;;;38.55;24.50;;;20.10;99.90;;;;;;5069303;28;20278;-80
2022/08/19 06:56:22;;;;;;;34.40;23.20;;;20.20;99.90;;;;;;5055676;28;20285;-81
2022/08/19 06:58:51;;;;;;;32.25;21.92;;;20.30;99.90;;;;;;5051574;28;20671;-80
2022/08/19 07:01:19;;;;;;;34.65;22.25;;;20.50;99.90;;;;;;5050796;28;20465;-78
2022/08/19 07:03:47;;;;;;;30.63;21.02;;;20.60;99.90;;;;;;5051478;28;20213;-79
2022/08/19 07:06:19;;;;;;;31.95;19.92;;;20.80;99.90;;;;;;5051967;28;20202;-80
2022/08/19 07:08:47;;;;;;;29.40;19.30;;;20.90;99.90;;;;;;5051148;28;20753;-79
2022/08/19 07:11:18;;;;;;;26.98;17.38;;;21.10;99.90;;;;;;5051466;28;20499;-79
2022/08/19 07:13:48;;;;;;;20.52;12.98;;;21.20;99.90;;;;;;5051396;28;20900;-79
2022/08/19 07:16:19;;;;;;;20.95;13.13;;;21.20;99.90;;;;;;5050725;28;20198;-79
2022/08/19 07:18:48;;;;;;;20.27;10.65;;;21.20;99.90;;;;;;5051517;28;20190;-79
2022/08/19 07:21:16;;;;;;;17.70;9.80;;;21.20;99.90;;;;;;5070836;28;20609;-79
2022/08/19 07:23:43;;;;;;;12.38;9.20;;;21.20;99.90;;;;;;5070027;28;20202;-79
2022/08/19 07:26:14;;;;;;;14.27;8.88;;;21.20;99.90;;;;;;5071452;28;20205;-79
2022/08/19 07:28:43;;;;;;;18.67;9.18;;;21.20;99.90;;;;;;5069990;28;20208;-79
2022/08/19 07:31:11;;;;;;;12.57;8.63;;;21.20;99.90;;;;;;5071596;28;20213;-79
2022/08/19 07:33:38;;;;;;;15.90;9.13;;;21.20;99.90;;;;;;5071009;28;20209;-78
2022/08/19 07:36:10;;;;;;;17.05;11.60;;;21.30;99.90;;;;;;5070095;28;20231;-79
2022/08/19 07:38:37;;;;;;;15.82;10.40;;;21.30;99.90;;;;;;5071725;28;20194;-78
2022/08/19 07:41:04;;;;;;;12.93;9.45;;;21.40;99.90;;;;;;5072852;28;20233;-79
2022/08/19 07:43:31;;;;;;;13.45;8.57;;;21.50;99.90;;;;;;5059922;28;20213;-79
2022/08/19 07:45:58;;;;;;;18.67;10.25;;;21.60;99.90;;;;;;5054976;28;20206;-78
2022/08/19 07:48:26;;;;;;;14.20;8.90;;;21.70;99.90;;;;;;5055641;28;20209;-78
2022/08/19 07:50:54;;;;;;;14.13;10.52;;;21.80;99.90;;;;;;5054302;28;20325;-78
2022/08/19 07:53:22;;;;;;;17.40;9.57;;;21.90;99.90;;;;;;5055249;28;20206;-78
2022/08/19 07:55:49;;;;;;;14.05;8.90;;;22.00;99.90;;;;;;5062142;28;20502;-78
2022/08/19 07:58:18;;;;;;;11.95;9.20;;;22.10;99.90;;;;;;5070081;28;20503;-78
2022/08/19 08:00:47;;;;;;;12.48;8.50;;;22.10;99.90;;;;;;5054858;28;20259;-79
2022/08/19 08:03:15;;;;;;;13.20;8.80;;;22.00;99.90;;;;;;5054782;28;20292;-78
2022/08/19 08:11:24;;;;;;;18.33;9.85;;;22.10;99.90;;;;;;5057778;28;20686;-79
2022/08/19 08:13:51;;;;;;;11.05;8.20;;;22.00;99.90;;;;;;5059530;28;20206;-78
2022/08/19 08:16:18;;;;;;;11.98;7.70;;;22.00;99.90;;;;;;5070462;28;20207;-78
2022/08/19 08:18:45;;;;;;;13.73;8.25;;;22.00;99.90;;;;;;5072245;28;20232;-78
2022/08/19 08:21:12;;;;;;;10.75;7.85;;;22.00;99.90;;;;;;5074327;28;20780;-79
2022/08/19 08:23:42;;;;;;;12.48;7.03;;;22.20;99.90;;;;;;5075250;28;20201;-79
2022/08/19 08:26:09;;;;;;;14.40;7.88;;;22.50;99.90;;;;;;5068638;28;20225;-79
2022/08/19 08:28:37;;;;;;;11.20;7.43;;;22.60;99.90;;;;;;5060332;28;20622;-79
2022/08/19 08:31:04;;;;;;;12.23;8.70;;;22.70;99.90;;;;;;5073281;28;20219;-79
2022/08/19 08:33:31;;;;;;;12.40;7.78;;;22.70;99.90;;;;;;5079613;28;20201;-79
2022/08/19 08:35:58;;;;;;;14.82;8.70;;;22.70;99.90;;;;;;5074750;28;20256;-80
2022/08/19 08:38:25;;;;;;;15.93;8.82;;;22.80;99.90;;;;;;5082483;28;20277;-79
2022/08/19 08:41:06;;;;;;;13.05;8.48;;;23.00;99.90;;;;;;5077747;28;20512;-80
2022/08/19 08:43:35;;;;;;;10.55;7.93;;;23.20;99.90;;;;;;5075635;28;20208;-79
2022/08/19 08:46:06;;;;;;;16.52;8.02;;;23.20;99.90;;;;;;5078144;28;20204;-79
2022/08/19 08:48:38;;;;;;;14.85;7.35;;;23.20;99.90;;;;;;5085591;28;20258;-79
2022/08/19 08:51:09;;;;;;;13.73;8.20;;;23.20;99.90;;;;;;5079523;28;20600;-79
2022/08/19 08:53:38;;;;;;;11.68;8.10;;;23.20;99.90;;;;;;5079104;28;20213;-78
2022/08/19 08:56:12;;;;;;;14.13;8.02;;;23.20;99.90;;;;;;5080689;28;20612;-80
2022/08/19 08:58:47;;;;;;;8.70;6.38;;;23.30;99.90;;;;;;5082159;28;20197;-80
2022/08/19 09:01:15;;;;;;;12.95;7.13;;;23.40;99.90;;;;;;5070558;28;20544;-78
2022/08/19 09:03:45;;;;;;;13.13;6.35;;;23.40;99.90;;;;;;5071411;28;20498;-77
2022/08/19 09:06:19;;;;;;;10.00;7.07;;;23.40;99.90;;;;;;5072291;28;20516;-78
2022/08/19 09:08:52;;;;;;;10.00;6.70;;;23.40;99.90;;;;;;5072291;28;20596;-76
2022/08/19 09:11:38;;;;;;;9.88;7.10;;;23.50;99.90;;;;;;5072581;28;20314;-78
2022/08/19 09:14:15;;;;;;;8.63;5.78;;;23.60;99.90;;;;;;5072036;28;20193;-79
2022/08/19 09:16:42;;;;;;;7.15;4.85;;;23.60;99.90;;;;;;5072517;28;20207;-79
2022/08/19 09:19:10;;;;;;;9.57;5.50;;;23.70;99.90;;;;;;5070613;28;20205;-79
2022/08/19 09:21:39;;;;;;;7.82;5.65;;;23.60;99.90;;;;;;5065703;28;20231;-79
2022/08/19 09:24:06;;;;;;;7.35;5.07;;;23.50;99.90;;;;;;5070496;28;20205;-78
2022/08/19 09:26:35;;;;;;;7.75;5.97;;;23.50;99.90;;;;;;5069048;28;20229;-79
2022/08/19 09:29:04;;;;;;;7.75;5.80;;;23.40;99.90;;;;;;5073736;28;20194;-79
2022/08/19 09:31:32;;;;;;;10.60;5.68;;;23.50;99.90;;;;;;5087107;28;20303;-79
2022/08/19 09:34:01;;;;;;;6.05;4.05;;;23.50;99.90;;;;;;5080970;28;20585;-79
2022/08/19 09:36:32;;;;;;;10.25;6.13;;;23.70;99.90;;;;;;5077626;28;20212;-79
2022/08/19 09:39:00;;;;;;;5.68;4.68;;;23.90;99.90;;;;;;5071671;28;20480;-79
2022/08/19 09:41:27;;;;;;;10.02;5.55;;;24.00;99.90;;;;;;5062486;28;20570;-79
2022/08/19 09:43:59;;;;;;;4.72;4.22;;;24.10;99.90;;;;;;5058354;28;20194;-79
2022/08/19 09:46:28;;;;;;;7.53;4.75;;;24.10;99.90;;;;;;5052423;28;20186;-78
2022/08/19 09:48:58;;;;;;;11.23;6.03;;;24.30;99.90;;;;;;5052742;28;20194;-79
2022/08/19 09:51:28;;;;;;;10.73;4.72;;;24.50;99.90;;;;;;5052104;28;20233;-78
2022/08/19 09:53:57;;;;;;;9.98;4.40;;;24.80;99.90;;;;;;5052791;28;20205;-80
2022/08/19 09:56:24;;;;;;;6.57;4.75;;;25.20;99.90;;;;;;5051795;28;20244;-78
2022/08/19 09:58:51;;;;;;;5.15;3.40;;;25.60;99.90;;;;;;5052820;28;20201;-79
2022/08/19 10:01:21;;;;;;;7.38;4.18;;;25.70;99.90;;;;;;5052911;28;20198;-78
2022/08/19 10:03:50;;;;;;;8.35;4.03;;;25.70;99.90;;;;;;5051031;28;20191;-78
2022/08/19 10:06:18;;;;;;;6.95;4.18;;;25.70;95.70;;;;;;5051101;28;20254;-78
2022/08/19 10:08:45;;;;;;;6.03;4.20;;;25.70;99.90;;;;;;5067143;28;20201;-77
2022/08/19 10:11:14;;;;;;;6.40;3.92;;;25.70;99.90;;;;;;5070766;28;20225;-80
2022/08/19 10:13:41;;;;;;;7.28;5.10;;;25.40;99.90;;;;;;5067005;28;20201;-78
2022/08/19 10:16:10;;;;;;;7.22;4.45;;;25.20;99.90;;;;;;5052153;28;20541;-78
2022/08/19 10:18:43;;;;;;;7.15;4.00;;;25.00;99.90;;;;;;5051210;28;20543;-78
2022/08/19 10:21:12;;;;;;;9.10;4.57;;;24.90;99.90;;;;;;5056092;28;20208;-78
2022/08/19 10:23:44;;;;;;;6.68;4.18;;;24.70;99.90;;;;;;5069568;28;20196;-79
2022/08/19 10:26:11;;;;;;;6.88;4.63;;;24.60;99.90;;;;;;5078926;28;20205;-79
2022/08/19 10:28:38;;;;;;;7.32;4.60;;;24.50;99.90;;;;;;5083681;28;20208;-78
2022/08/19 10:31:07;;;;;;;9.38;4.63;;;24.50;99.90;;;;;;5081778;28;20216;-78
2022/08/19 10:33:34;;;;;;;5.95;3.97;;;24.40;99.90;;;;;;5071839;28;20201;-80
2022/08/19 10:36:04;;;;;;;9.35;5.05;;;24.40;99.90;;;;;;5072579;28;20308;-78
2022/08/19 10:38:31;;;;;;;8.13;4.57;;;24.30;99.90;;;;;;5071966;28;20621;-78
2022/08/19 10:40:58;;;;;;;8.07;4.60;;;24.40;99.90;;;;;;5072162;28;20193;-80
2022/08/19 10:43:26;;;;;;;6.88;5.10;;;24.50;99.90;;;;;;5072566;28;20609;-80
2022/08/19 10:45:55;;;;;;;6.95;5.03;;;24.40;99.90;;;;;;5076628;28;20189;-79
2022/08/19 10:48:22;;;;;;;5.78;4.22;;;24.50;99.90;;;;;;5088692;28;20193;-78
2022/08/19 10:53:35;;;;;;;5.68;4.07;;;24.50;99.90;;;;;;5052200;28;20193;-79
2022/08/19 10:58:48;;;;;;;6.18;3.85;;;24.50;99.90;;;;;;5068818;28;20535;-79
2022/08/19 11:01:15;;;;;;;7.72;4.90;;;24.50;99.90;;;;;;5051138;28;20198;-77
2022/08/19 11:03:42;;;;;;;6.13;4.53;;;24.50;99.90;;;;;;5057824;28;20576;-77
2022/08/19 11:06:09;;;;;;;6.78;4.50;;;24.50;99.90;;;;;;5071016;28;20598;-79
2022/08/19 11:08:39;;;;;;;4.30;3.60;;;24.50;99.90;;;;;;5070299;28;20201;-79
2022/08/19 11:11:07;;;;;;;5.53;3.83;;;24.60;99.90;;;;;;5071183;28;20229;-81
2022/08/19 11:13:37;;;;;;;5.60;4.20;;;24.70;99.90;;;;;;5054984;28;20220;-85
2022/08/19 11:16:07;;;;;;;4.93;4.35;;;24.80;99.90;;;;;;5053140;28;20194;-81
2022/08/19 11:18:35;;;;;;;5.22;3.53;;;24.90;99.90;;;;;;5055195;28;20201;-79
2022/08/19 11:21:12;;;;;;;6.05;3.85;;;24.80;99.90;;;;;;5054297;28;20210;-81
2022/08/19 11:23:43;;;;;;;8.13;4.40;;;24.80;99.90;;;;;;5055222;28;20284;-81
2022/08/19 11:26:10;;;;;;;10.02;4.53;;;24.90;99.90;;;;;;5055092;28;20212;-80
2022/08/19 11:28:38;;;;;;;5.13;3.45;;;25.00;99.90;;;;;;5054548;28;20306;-81
2022/08/19 11:31:05;;;;;;;5.25;3.50;;;25.00;99.90;;;;;;5055533;28;20222;-80
2022/08/19 11:33:32;;;;;;;5.43;3.35;;;25.20;99.90;;;;;;5055172;28;20200;-81
2022/08/19 11:36:00;;;;;;;5.07;3.40;;;25.20;99.90;;;;;;5054363;28;20214;-80
2022/08/19 11:38:27;;;;;;;6.88;4.03;;;25.30;99.90;;;;;;5070421;28;20652;-80
2022/08/19 11:41:01;;;;;;;6.78;3.80;;;25.40;99.90;;;;;;5073942;28;20301;-79
2022/08/19 11:43:29;;;;;;;7.38;4.40;;;25.50;99.90;;;;;;5073386;28;20181;-81
2022/08/19 11:45:56;;;;;;;6.13;3.45;;;25.50;99.90;;;;;;5074805;28;20200;-81
2022/08/19 11:48:24;;;;;;;8.68;4.00;;;25.40;99.90;;;;;;5066541;28;20209;-81
2022/08/19 11:50:55;;;;;;;11.13;4.03;;;25.40;99.90;;;;;;5054278;28;20241;-82
2022/08/19 11:53:22;;;;;;;7.35;4.97;;;25.50;99.90;;;;;;5054686;28;20577;-81
2022/08/19 11:55:50;;;;;;;6.15;4.45;;;25.50;99.90;;;;;;5054899;28;20197;-81
2022/08/19 11:58:18;;;;;;;6.28;3.90;;;25.50;99.90;;;;;;5060972;28;20232;-81
2022/08/19 12:00:45;;;;;;;4.43;3.30;;;25.70;99.90;;;;;;5074250;28;20212;-81
2022/08/19 12:03:13;;;;;;;4.63;3.00;;;26.00;99.90;;;;;;5063846;28;20303;-82
2022/08/19 12:05:42;;;;;;;6.18;3.13;;;26.10;99.90;;;;;;5054943;28;20209;-81
2022/08/19 12:08:09;;;;;;;3.50;2.25;;;26.30;99.90;;;;;;5054445;28;20194;-81
2022/08/19 12:10:37;;;;;;;6.25;3.20;;;26.40;99.90;;;;;;5054370;28;20507;-82
2022/08/19 12:13:04;;;;;;;4.35;2.75;;;26.50;99.90;;;;;;5054399;28;20313;-81
2022/08/19 12:15:36;;;;;;;6.97;3.03;;;26.70;99.90;;;;;;5054067;28;20588;-82
2022/08/19 12:18:05;;;;;;;8.13;3.63;;;26.80;99.90;;;;;;5053421;28;20219;-81
2022/08/19 12:20:35;;;;;;;6.20;4.20;;;27.00;99.90;;;;;;5057295;28;20227;-83
2022/08/19 12:23:02;;;;;;;6.05;3.15;;;27.10;92.00;;;;;;5070982;28;20224;-82
2022/08/19 12:25:30;;;;;;;6.70;3.30;;;27.20;99.90;;;;;;5073699;28;20539;-82
2022/08/19 12:27:57;;;;;;;4.22;3.03;;;27.30;99.90;;;;;;5073087;28;20672;-80
2022/08/19 12:30:24;;;;;;;6.13;3.50;;;27.10;99.90;;;;;;5074757;28;20287;-83
2022/08/19 12:32:53;;;;;;;7.03;3.72;;;27.00;98.90;;;;;;5074254;28;20648;-82
2022/08/19 12:35:20;;;;;;;6.70;3.70;;;26.80;97.00;;;;;;5073655;28;20300;-81
2022/08/19 12:37:48;;;;;;;4.63;3.15;;;26.60;99.90;;;;;;5074062;28;20207;-81
2022/08/19 12:40:17;;;;;;;6.20;3.53;;;26.40;99.90;;;;;;5073692;28;20294;-81
2022/08/19 12:42:44;;;;;;;7.30;3.40;;;26.30;99.90;;;;;;5073934;28;20204;-82
2022/08/19 12:45:12;;;;;;;4.72;3.25;;;26.20;99.90;;;;;;5068278;28;20292;-81
2022/08/19 12:47:40;;;;;;;5.15;3.40;;;26.10;99.90;;;;;;5053512;28;20208;-80
2022/08/19 12:50:09;;;;;;;7.68;3.80;;;26.00;99.90;;;;;;5054253;28;20214;-79
2022/08/19 12:52:37;;;;;;;7.93;3.53;;;26.00;99.90;;;;;;5052882;28;20242;-82
2022/08/19 12:55:06;;;;;;;7.10;4.85;;;25.90;99.90;;;;;;5053432;28;20633;-80
2022/08/19 12:57:35;;;;;;;5.18;3.30;;;25.80;99.90;;;;;;5053434;28;20212;-83
2022/08/19 13:00:07;;;;;;;6.75;3.40;;;25.70;99.90;;;;;;5053398;28;20743;-83
2022/08/19 13:02:35;;;;;;;3.78;2.58;;;25.70;99.90;;;;;;5054384;28;20191;-81
2022/08/19 13:05:01;;;;;;;5.38;3.05;;;25.70;99.90;;;;;;5066449;28;20216;-85
2022/08/19 13:07:30;;;;;;;8.95;4.95;;;25.70;99.90;;;;;;5073508;28;20280;-79